createdAt,value
2023-02-26T00:01:34.158Z,70.67
2023-02-26T00:04:06.128Z,70.90
2023-02-26T00:06:36.788Z,70.20
2023-02-26T00:09:06.492Z,70.73
2023-02-26T00:11:35.738Z,70.50
2023-02-26T00:14:04.719Z,70.93
2023-02-26T00:16:35.986Z,68.50
2023-02-26T00:19:08.661Z,67.47
2023-02-26T00:21:38.022Z,64.93
2023-02-26T00:24:08.225Z,64.10
2023-02-26T00:26:37.350Z,65.57
2023-02-26T00:29:06.500Z,66.17
2023-02-26T00:31:35.704Z,71.20
2023-02-26T00:34:06.500Z,70.80
2023-02-26T00:36:45.666Z,66.93
2023-02-26T00:39:30.751Z,70.13
2023-02-26T00:42:00.040Z,70.30
2023-02-26T00:44:28.954Z,68.43
2023-02-26T00:47:04.995Z,66.13
2023-02-26T00:49:50.275Z,65.30
2023-02-26T00:52:26.278Z,66.83
2023-02-26T00:54:54.801Z,66.03
2023-02-26T00:57:23.533Z,66.87
2023-02-26T00:59:52.351Z,70.57
2023-02-26T01:02:22.482Z,70.70
2023-02-26T01:04:53.454Z,71.97
2023-02-26T01:07:24.752Z,68.30
2023-02-26T01:09:53.740Z,68.03
2023-02-26T01:12:23.047Z,64.23
2023-02-26T01:14:52.337Z,64.50
2023-02-26T01:17:26.822Z,65.17
2023-02-26T01:20:02.415Z,62.63
2023-02-26T01:22:38.301Z,59.67
2023-02-26T01:25:09.461Z,63.53
2023-02-26T01:27:38.994Z,65.90
2023-02-26T01:30:10.068Z,56.33
2023-02-26T01:32:45.494Z,54.50
2023-02-26T01:35:31.452Z,65.03
2023-02-26T01:38:04.942Z,66.70
2023-02-26T01:40:55.940Z,68.20
2023-02-26T01:43:30.362Z,68.03
2023-02-26T01:46:04.211Z,62.70
2023-02-26T01:48:39.241Z,64.07
2023-02-26T01:51:10.394Z,62.13
2023-02-26T01:53:39.228Z,51.67
2023-02-26T01:56:17.207Z,48.03
2023-02-26T01:58:49.426Z,43.93
2023-02-26T02:01:17.901Z,66.90
2023-02-26T02:03:47.234Z,66.03
2023-02-26T02:06:21.082Z,70.13
2023-02-26T02:08:50.140Z,67.13
2023-02-26T02:11:18.903Z,67.43
2023-02-26T02:14:04.329Z,67.43
2023-02-26T02:16:40.640Z,65.60
2023-02-26T02:19:27.517Z,68.17
2023-02-26T02:22:16.576Z,59.07
2023-02-26T02:24:59.132Z,61.13
2023-02-26T02:27:36.904Z,68.47
2023-02-26T02:30:17.680Z,65.63
2023-02-26T02:32:51.923Z,65.23
2023-02-26T02:35:26.025Z,63.27
2023-02-26T02:38:00.309Z,67.37
2023-02-26T02:40:33.354Z,68.03
2023-02-26T02:43:05.584Z,69.80
2023-02-26T02:45:39.695Z,71.07
2023-02-26T02:48:13.231Z,66.60
2023-02-26T02:50:48.623Z,78.03
2023-02-26T02:53:22.797Z,67.43
2023-02-26T02:55:57.707Z,65.27
2023-02-26T02:58:37.269Z,67.23
2023-02-26T03:01:11.005Z,69.00
2023-02-26T03:03:46.492Z,70.30
2023-02-26T03:06:15.323Z,70.40
2023-02-26T03:08:45.361Z,64.63
2023-02-26T03:11:14.036Z,68.33
2023-02-26T03:13:43.233Z,70.60
2023-02-26T03:16:35.440Z,68.83
2023-02-26T03:19:15.276Z,64.77
2023-02-26T03:21:50.700Z,66.10
2023-02-26T03:24:38.172Z,67.67
2023-02-26T03:27:12.816Z,65.83
2023-02-26T03:29:52.419Z,66.27
2023-02-26T03:32:28.148Z,64.27
2023-02-26T03:35:04.105Z,66.57
2023-02-26T03:37:37.856Z,69.53
2023-02-26T03:40:11.921Z,69.30
2023-02-26T03:42:45.560Z,68.30
2023-02-26T03:45:17.384Z,65.00
2023-02-26T03:47:53.716Z,67.67
2023-02-26T03:50:30.749Z,68.90
2023-02-26T03:53:24.432Z,66.80
2023-02-26T03:56:03.441Z,67.87
2023-02-26T03:58:51.216Z,66.73
2023-02-26T04:01:43.679Z,72.03
2023-02-26T04:04:17.288Z,68.00
2023-02-26T04:06:48.140Z,70.47
2023-02-26T04:09:17.662Z,68.70
2023-02-26T04:11:47.425Z,70.77
2023-02-26T04:14:16.224Z,72.83
2023-02-26T04:16:46.060Z,69.60
2023-02-26T04:19:15.399Z,67.43
2023-02-26T04:21:46.098Z,66.87
2023-02-26T04:24:17.673Z,68.73
2023-02-26T04:26:46.555Z,66.07
2023-02-26T04:29:15.838Z,73.23
2023-02-26T04:31:45.477Z,69.60
2023-02-26T04:34:14.644Z,70.20
2023-02-26T04:36:43.181Z,70.93
2023-02-26T04:39:13.659Z,70.37
2023-02-26T04:41:42.650Z,70.53
2023-02-26T04:44:11.797Z,71.07
2023-02-26T04:46:43.364Z,71.10
2023-02-26T04:49:12.197Z,71.83
2023-02-26T04:51:44.898Z,71.63
2023-02-26T04:54:17.676Z,69.43
2023-02-26T04:56:46.255Z,68.30
2023-02-26T04:59:14.969Z,71.57
2023-02-26T05:01:43.514Z,70.17
2023-02-26T05:04:12.301Z,71.70
2023-02-26T05:06:43.021Z,72.90
2023-02-26T05:09:11.859Z,70.40
2023-02-26T05:11:41.712Z,69.07
2023-02-26T05:14:10.521Z,60.27
2023-02-26T05:16:39.630Z,60.87
2023-02-26T05:19:08.803Z,60.33
2023-02-26T05:21:37.756Z,60.23
2023-02-26T05:24:07.052Z,49.53
2023-02-26T05:26:35.613Z,57.27
2023-02-26T05:29:06.826Z,59.20
2023-02-26T05:31:35.409Z,51.70
2023-02-26T05:34:04.200Z,52.50
2023-02-26T05:36:32.631Z,58.53
2023-02-26T05:39:01.580Z,50.80
2023-02-26T05:41:30.023Z,46.37
2023-02-26T05:43:59.096Z,48.07
2023-02-26T05:46:29.206Z,48.50
2023-02-26T05:48:58.044Z,48.20
2023-02-26T05:51:26.573Z,52.53
2023-02-26T05:53:55.245Z,53.27
2023-02-26T05:56:24.066Z,55.03
2023-02-26T05:58:53.280Z,51.33
2023-02-26T06:01:21.866Z,56.13
2023-02-26T06:03:51.947Z,50.27
2023-02-26T06:06:21.704Z,50.07
2023-02-26T06:08:50.487Z,50.87
2023-02-26T06:11:18.897Z,49.47
2023-02-26T06:13:47.708Z,50.10
2023-02-26T06:16:16.329Z,53.50
2023-02-26T06:18:45.166Z,55.43
2023-02-26T06:21:15.286Z,70.53
2023-02-26T06:23:44.183Z,67.87
2023-02-26T06:26:12.697Z,67.27
2023-02-26T06:28:41.805Z,55.77
2023-02-26T06:31:10.344Z,60.63
2023-02-26T06:33:39.097Z,55.30
2023-02-26T06:36:08.354Z,53.00
2023-02-26T06:38:38.537Z,56.73
2023-02-26T06:41:07.286Z,56.00
2023-02-26T06:43:36.012Z,51.27
2023-02-26T06:46:04.794Z,56.47
2023-02-26T06:48:34.035Z,55.27
2023-02-26T06:51:02.636Z,54.30
2023-02-26T06:53:31.319Z,64.87
2023-02-26T06:56:01.205Z,61.20
2023-02-26T06:58:30.254Z,56.93
2023-02-26T07:00:58.777Z,57.43
2023-02-26T07:03:28.051Z,55.17
2023-02-26T07:05:57.306Z,71.47
2023-02-26T07:08:28.112Z,68.47
2023-02-26T07:10:56.683Z,58.20
2023-02-26T07:13:27.145Z,60.57
2023-02-26T07:15:55.706Z,60.23
2023-02-26T07:18:24.545Z,59.93
2023-02-26T07:20:53.035Z,59.20
2023-02-26T07:23:21.756Z,60.57
2023-02-26T07:25:50.755Z,57.60
2023-02-26T07:28:20.616Z,55.37
2023-02-26T07:30:50.645Z,66.63
2023-02-26T07:33:19.742Z,60.30
2023-02-26T07:35:48.524Z,56.17
2023-02-26T07:38:19.222Z,57.03
2023-02-26T07:40:48.260Z,64.00
2023-02-26T07:43:17.079Z,55.50
2023-02-26T07:45:45.524Z,58.23
2023-02-26T07:48:17.651Z,58.73
2023-02-26T07:50:47.771Z,55.43
2023-02-26T07:53:16.920Z,54.90
2023-02-26T07:55:45.493Z,57.43
2023-02-26T07:58:14.278Z,59.60
2023-02-26T08:00:42.759Z,59.03
2023-02-26T08:03:11.549Z,58.07
2023-02-26T08:05:41.452Z,57.33
2023-02-26T08:08:10.211Z,59.17
2023-02-26T08:10:41.089Z,56.90
2023-02-26T08:13:10.998Z,57.50
2023-02-26T08:15:41.617Z,56.67
2023-02-26T08:18:10.459Z,55.93
2023-02-26T08:20:39.279Z,58.07
2023-02-26T08:23:09.480Z,58.80
2023-02-26T08:25:37.966Z,57.43
2023-02-26T08:28:06.993Z,56.20
2023-02-26T08:30:35.604Z,55.43
2023-02-26T08:33:04.878Z,57.57
2023-02-26T08:35:33.605Z,56.83
2023-02-26T08:38:02.296Z,56.93
2023-02-26T08:40:32.685Z,55.70
2023-02-26T08:43:01.589Z,55.40
2023-02-26T08:45:30.033Z,56.43
2023-02-26T08:47:59.263Z,53.90
2023-02-26T08:50:28.227Z,55.30
2023-02-26T08:52:57.214Z,58.50
2023-02-26T08:55:25.767Z,56.57
2023-02-26T08:57:55.911Z,58.03
2023-02-26T09:00:24.646Z,56.40
2023-02-26T09:02:53.594Z,54.80
2023-02-26T09:05:22.644Z,57.43
2023-02-26T09:07:51.479Z,70.37
2023-02-26T09:10:20.507Z,59.47
2023-02-26T09:12:49.224Z,53.77
2023-02-26T09:15:20.002Z,55.70
2023-02-26T09:17:51.657Z,55.37
2023-02-26T09:20:20.382Z,64.23
2023-02-26T09:22:49.324Z,57.80
2023-02-26T09:25:17.903Z,56.87
2023-02-26T09:27:46.967Z,55.97
2023-02-26T09:30:15.938Z,61.20
2023-02-26T09:32:46.357Z,60.97
2023-02-26T09:35:14.924Z,56.83
2023-02-26T09:37:43.796Z,54.87
2023-02-26T09:40:25.732Z,56.23
2023-02-26T09:43:07.582Z,56.07
2023-02-26T09:45:41.140Z,53.73
2023-02-26T09:48:16.330Z,57.60
2023-02-26T09:50:48.804Z,57.47
2023-02-26T09:53:21.768Z,57.60
2023-02-26T09:55:52.055Z,53.77
2023-02-26T09:58:25.662Z,55.80
2023-02-26T10:01:02.851Z,52.90
2023-02-26T10:03:45.973Z,54.23
2023-02-26T10:06:26.574Z,52.27
2023-02-26T10:09:17.125Z,53.10
2023-02-26T10:11:52.186Z,55.20
2023-02-26T10:14:27.330Z,62.43
2023-02-26T10:17:00.412Z,61.53
2023-02-26T10:19:35.072Z,70.70
2023-02-26T10:22:16.625Z,64.10
2023-02-26T10:24:50.356Z,63.10
2023-02-26T10:27:24.039Z,62.63
2023-02-26T10:29:59.049Z,61.73
2023-02-26T10:32:34.363Z,64.13
2023-02-26T10:35:09.178Z,63.83
2023-02-26T10:37:47.990Z,65.70
2023-02-26T10:40:20.498Z,63.93
2023-02-26T10:42:51.974Z,68.20
2023-02-26T10:45:34.566Z,66.43
2023-02-26T10:48:15.985Z,64.13
2023-02-26T10:50:51.744Z,63.93
2023-02-26T10:53:21.384Z,64.40
2023-02-26T10:55:55.162Z,65.50
2023-02-26T10:58:25.984Z,66.17
2023-02-26T11:00:56.715Z,65.93
2023-02-26T11:03:33.465Z,66.40
2023-02-26T11:06:06.698Z,65.30
2023-02-26T11:08:40.761Z,63.73
2023-02-26T11:11:10.141Z,64.40
2023-02-26T11:13:40.698Z,67.67
2023-02-26T11:16:15.734Z,71.07
2023-02-26T11:18:49.449Z,68.30
2023-02-26T11:21:22.455Z,63.13
2023-02-26T11:23:52.940Z,63.00
2023-02-26T11:26:28.747Z,64.37
2023-02-26T11:28:59.722Z,66.90
2023-02-26T11:31:29.352Z,65.27
2023-02-26T11:34:03.197Z,65.37
2023-02-26T11:36:36.486Z,64.50
2023-02-26T11:39:10.378Z,67.03
2023-02-26T11:41:40.707Z,66.90
2023-02-26T11:44:13.679Z,66.83
2023-02-26T11:46:45.912Z,66.50
2023-02-26T11:49:17.882Z,59.33
2023-02-26T11:51:49.191Z,58.30
2023-02-26T11:54:25.869Z,56.00
2023-02-26T11:57:02.797Z,61.13
2023-02-26T11:59:33.950Z,59.37
2023-02-26T12:02:05.801Z,56.70
2023-02-26T12:04:34.248Z,56.63
2023-02-26T12:07:04.616Z,57.83
2023-02-26T12:09:34.135Z,60.63
2023-02-26T12:12:25.700Z,56.37
2023-02-26T12:15:22.734Z,59.17
2023-02-26T12:18:15.841Z,95.93
2023-02-26T12:20:54.959Z,58.33
2023-02-26T12:23:50.785Z,17.20
2023-02-26T12:26:28.391Z,7.57
2023-02-26T12:29:31.103Z,5.33
2023-02-26T12:32:13.176Z,5.37
2023-02-26T12:35:12.400Z,4.37
2023-02-26T12:37:52.941Z,4.43
2023-02-26T12:40:54.339Z,4.63
2023-02-26T12:43:33.134Z,4.90
2023-02-26T12:46:14.994Z,5.13
2023-02-26T12:49:04.258Z,4.57
2023-02-26T12:51:47.254Z,3.87
2023-02-26T12:54:27.917Z,4.80
2023-02-26T12:57:15.683Z,4.53
2023-02-26T13:00:12.910Z,5.50
2023-02-26T13:03:17.943Z,4.03
2023-02-26T13:06:00.750Z,3.20
2023-02-26T13:08:36.383Z,4.17
2023-02-26T13:11:20.917Z,3.57
2023-02-26T13:14:17.551Z,3.77
2023-02-26T13:16:50.947Z,3.67
2023-02-26T13:19:32.359Z,3.47
2023-02-26T13:22:06.244Z,3.83
2023-02-26T13:24:41.198Z,3.13
2023-02-26T13:27:13.108Z,2.60
2023-02-26T13:29:47.583Z,4.03
2023-02-26T13:32:19.739Z,3.60
2023-02-26T13:34:54.511Z,3.80
2023-02-26T13:37:27.012Z,2.97
2023-02-26T13:40:13.773Z,3.03
2023-02-26T13:42:48.210Z,4.10
2023-02-26T13:45:37.310Z,3.47
2023-02-26T13:48:21.419Z,4.03
2023-02-26T13:50:58.708Z,3.57
2023-02-26T13:53:49.357Z,4.70
2023-02-26T13:56:22.019Z,3.40
2023-02-26T13:58:55.395Z,3.47
2023-02-26T14:01:33.402Z,3.97
2023-02-26T14:04:25.420Z,3.93
2023-02-26T14:06:55.358Z,4.33
2023-02-26T14:09:44.418Z,3.90
2023-02-26T14:12:35.028Z,3.30
2023-02-26T14:15:44.644Z,3.43
2023-02-26T14:18:42.756Z,2.83
2023-02-26T14:21:49.848Z,3.87
2023-02-26T14:24:23.147Z,4.40
2023-02-26T14:27:04.832Z,4.73
2023-02-26T14:29:42.121Z,5.27
2023-02-26T14:32:28.149Z,2.60
2023-02-26T14:35:01.589Z,4.00
2023-02-26T14:37:31.937Z,3.53
2023-02-26T14:40:08.943Z,4.37
2023-02-26T14:42:42.626Z,3.23
2023-02-26T14:45:24.506Z,3.07
2023-02-26T14:47:53.277Z,3.53
2023-02-26T14:50:24.606Z,4.13
2023-02-26T14:53:25.103Z,2.90
2023-02-26T14:56:06.626Z,2.90
2023-02-26T14:58:53.694Z,3.60
2023-02-26T15:01:37.713Z,3.87
2023-02-26T15:04:50.802Z,3.10
2023-02-26T15:07:41.159Z,2.97
2023-02-26T15:10:26.208Z,3.57
2023-02-26T15:13:14.341Z,2.90
2023-02-26T15:15:53.551Z,2.30
2023-02-26T15:18:56.333Z,2.70
2023-02-26T15:21:35.343Z,2.87
2023-02-26T15:24:07.884Z,2.57
2023-02-26T15:26:41.140Z,2.83
2023-02-26T15:29:14.662Z,2.83
2023-02-26T15:31:45.398Z,2.20
2023-02-26T15:34:16.444Z,3.17
2023-02-26T15:36:47.266Z,3.50
2023-02-26T15:39:19.830Z,1.77
2023-02-26T15:41:50.632Z,3.03
2023-02-26T15:44:23.150Z,3.10
2023-02-26T15:46:56.839Z,3.67
2023-02-26T15:49:30.427Z,3.73
2023-02-26T15:52:00.595Z,2.70
2023-02-26T15:54:38.319Z,3.27
2023-02-26T15:57:08.697Z,3.83
2023-02-26T15:59:42.346Z,2.50
2023-02-26T16:02:14.275Z,2.50
2023-02-26T16:04:44.521Z,3.33
2023-02-26T16:07:14.442Z,2.90
2023-02-26T16:09:48.286Z,2.77
2023-02-26T16:12:20.358Z,3.23
2023-02-26T16:14:53.129Z,2.77
2023-02-26T16:17:27.037Z,5.00
2023-02-26T16:19:59.676Z,3.70
2023-02-26T16:22:33.079Z,6.53
2023-02-26T16:25:15.367Z,6.13
2023-02-26T16:27:44.781Z,4.77
2023-02-26T16:30:20.163Z,4.80
2023-02-26T16:32:48.805Z,4.57
2023-02-26T16:35:21.521Z,4.13
2023-02-26T16:37:52.619Z,4.17
2023-02-26T16:40:27.517Z,3.83
2023-02-26T16:43:03.169Z,3.83
2023-02-26T16:45:50.794Z,2.67
2023-02-26T16:48:25.324Z,3.57
2023-02-26T16:51:00.787Z,3.93
2023-02-26T16:53:36.228Z,3.50
2023-02-26T16:56:07.241Z,3.23
2023-02-26T16:58:36.303Z,2.90
2023-02-26T17:01:10.142Z,3.93
2023-02-26T17:03:40.596Z,4.50
2023-02-26T17:06:12.742Z,3.37
2023-02-26T17:08:49.116Z,4.23
2023-02-26T17:11:26.123Z,3.83
2023-02-26T17:14:22.570Z,3.07
2023-02-26T17:16:53.197Z,3.73
2023-02-26T17:19:22.200Z,4.30
2023-02-26T17:21:54.337Z,3.60
2023-02-26T17:24:28.061Z,3.13
2023-02-26T17:26:58.935Z,5.60
2023-02-26T17:29:32.581Z,5.27
2023-02-26T17:32:01.703Z,4.77
2023-02-26T17:34:31.005Z,4.50
2023-02-26T17:37:05.487Z,3.80
2023-02-26T17:39:34.078Z,4.27
2023-02-26T17:42:04.432Z,4.10
2023-02-26T17:44:32.972Z,4.17
2023-02-26T17:47:02.022Z,6.20
2023-02-26T17:49:30.764Z,4.50
2023-02-26T17:51:59.740Z,5.87
2023-02-26T17:54:28.488Z,3.80
2023-02-26T17:56:57.625Z,5.07
2023-02-26T17:59:28.760Z,4.40
2023-02-26T18:01:58.176Z,4.53
2023-02-26T18:04:27.071Z,5.47
2023-02-26T18:06:56.884Z,4.27
2023-02-26T18:09:25.382Z,4.50
2023-02-26T18:11:54.579Z,4.93
2023-02-26T18:14:23.823Z,5.20
2023-02-26T18:16:55.302Z,5.37
2023-02-26T18:19:24.213Z,5.17
2023-02-26T18:21:53.887Z,4.80
2023-02-26T18:24:23.047Z,4.60
2023-02-26T18:26:52.957Z,4.47
2023-02-26T18:29:22.014Z,5.07
2023-02-26T18:31:51.464Z,4.20
2023-02-26T18:34:21.778Z,4.47
2023-02-26T18:36:51.154Z,4.63
2023-02-26T18:39:20.508Z,4.73
2023-02-26T18:41:49.734Z,5.37
2023-02-26T18:44:18.527Z,5.03
2023-02-26T18:46:49.164Z,4.90
2023-02-26T18:49:22.119Z,4.40
2023-02-26T18:51:54.212Z,5.00
2023-02-26T18:54:22.832Z,5.77
2023-02-26T18:56:52.662Z,5.63
2023-02-26T18:59:22.472Z,6.87
2023-02-26T19:01:52.194Z,7.30
2023-02-26T19:04:22.555Z,5.63
2023-02-26T19:06:52.678Z,5.20
2023-02-26T19:09:21.903Z,7.90
2023-02-26T19:11:51.740Z,7.57
2023-02-26T19:14:21.713Z,6.43
2023-02-26T19:16:51.245Z,5.73
2023-02-26T19:19:22.976Z,6.40
2023-02-26T19:21:53.873Z,6.37
2023-02-26T19:24:23.089Z,6.87
2023-02-26T19:26:52.618Z,5.30
2023-02-26T19:29:21.834Z,4.60
2023-02-26T19:31:52.011Z,6.13
2023-02-26T19:34:25.197Z,4.93
2023-02-26T19:36:56.279Z,5.23
2023-02-26T19:39:28.640Z,6.03
2023-02-26T19:41:59.511Z,4.70
2023-02-26T19:44:29.339Z,4.67
2023-02-26T19:46:59.925Z,4.67
2023-02-26T19:49:31.634Z,3.87
2023-02-26T19:52:01.386Z,4.73
2023-02-26T19:54:31.320Z,5.57
2023-02-26T19:57:01.898Z,3.93
2023-02-26T19:59:32.507Z,4.47
2023-02-26T20:02:02.470Z,5.23
2023-02-26T20:04:33.798Z,4.93
2023-02-26T20:07:05.093Z,5.63
2023-02-26T20:09:34.952Z,4.30
2023-02-26T20:12:05.770Z,4.30
2023-02-26T20:14:34.825Z,5.00
2023-02-26T20:17:06.929Z,3.93
2023-02-26T20:19:40.042Z,3.20
2023-02-26T20:22:12.025Z,3.70
2023-02-26T20:24:41.620Z,4.87
2023-02-26T20:27:11.236Z,4.50
2023-02-26T20:29:40.208Z,4.77
2023-02-26T20:32:11.401Z,4.23
2023-02-26T20:34:42.905Z,7.97
2023-02-26T20:37:15.684Z,3.67
2023-02-26T20:39:45.535Z,5.17
2023-02-26T20:42:18.502Z,4.77
2023-02-26T20:44:47.936Z,3.50
2023-02-26T20:47:18.421Z,3.93
2023-02-26T20:49:49.180Z,5.10
2023-02-26T20:52:18.698Z,4.73
2023-02-26T20:54:47.580Z,4.60
2023-02-26T20:57:16.937Z,4.60
2023-02-26T20:59:45.831Z,4.80
2023-02-26T21:02:20.588Z,4.43
2023-02-26T21:04:51.313Z,4.90
2023-02-26T21:07:22.819Z,5.37
2023-02-26T21:09:52.161Z,5.80
2023-02-26T21:12:21.235Z,4.97
2023-02-26T21:14:52.649Z,4.87
2023-02-26T21:17:21.988Z,6.07
2023-02-26T21:19:52.242Z,4.20
2023-02-26T21:22:22.217Z,4.97
2023-02-26T21:24:51.772Z,4.23
2023-02-26T21:27:20.666Z,6.90
2023-02-26T21:29:49.141Z,4.83
2023-02-26T21:32:18.189Z,5.37
2023-02-26T21:34:46.743Z,6.00
2023-02-26T21:37:16.986Z,5.57
2023-02-26T21:39:46.526Z,5.03
2023-02-26T21:42:15.623Z,4.57
2023-02-26T21:44:44.461Z,5.53
2023-02-26T21:47:13.259Z,5.80
2023-02-26T21:49:41.873Z,6.37
2023-02-26T21:52:10.657Z,5.50
2023-02-26T21:54:40.790Z,4.87
2023-02-26T21:57:10.243Z,5.47
2023-02-26T21:59:38.793Z,5.00
2023-02-26T22:02:08.098Z,6.70
2023-02-26T22:04:36.641Z,5.27
2023-02-26T22:07:08.627Z,6.23
2023-02-26T22:09:37.191Z,4.97
2023-02-26T22:12:08.510Z,5.97
2023-02-26T22:14:37.350Z,7.70
2023-02-26T22:17:06.528Z,7.93
2023-02-26T22:19:35.176Z,5.53
2023-02-26T22:22:04.149Z,6.33
2023-02-26T22:24:32.678Z,7.93
2023-02-26T22:27:01.461Z,6.07
2023-02-26T22:29:31.361Z,6.33
2023-02-26T22:32:00.250Z,5.90
2023-02-26T22:34:28.750Z,5.83
2023-02-26T22:36:57.430Z,5.47
2023-02-26T22:39:25.886Z,5.70
2023-02-26T22:41:54.645Z,5.43
2023-02-26T22:44:23.179Z,5.70
2023-02-26T22:46:53.264Z,6.67
2023-02-26T22:49:21.756Z,7.13
2023-02-26T22:51:50.491Z,6.23
2023-02-26T22:54:18.949Z,5.73
2023-02-26T22:56:48.048Z,5.27
2023-02-26T22:59:16.475Z,5.10
2023-02-26T23:01:45.234Z,5.63
2023-02-26T23:04:15.655Z,5.53
2023-02-26T23:06:44.471Z,6.27
2023-02-26T23:09:12.915Z,6.17
2023-02-26T23:11:41.709Z,6.93
2023-02-26T23:14:10.154Z,7.07
2023-02-26T23:16:39.143Z,6.57
2023-02-26T23:19:07.782Z,4.90
2023-02-26T23:21:37.908Z,5.07
2023-02-26T23:24:06.699Z,5.53
2023-02-26T23:26:35.844Z,5.20
2023-02-26T23:29:06.292Z,5.23
2023-02-26T23:31:35.371Z,6.33
2023-02-26T23:34:06.977Z,4.60
2023-02-26T23:36:37.239Z,6.27
2023-02-26T23:39:06.556Z,5.40
2023-02-26T23:41:35.511Z,5.30
2023-02-26T23:44:04.059Z,6.47
2023-02-26T23:46:32.909Z,7.13
2023-02-26T23:49:01.833Z,7.47
2023-02-26T23:51:30.613Z,6.80
2023-02-26T23:54:00.447Z,8.10
2023-02-26T23:56:29.165Z,6.80
2023-02-26T23:58:57.636Z,5.60
